English Harbour East, Canada
Current Conditions -  °F | °C
As of 5:00 PM on Friday 24 Oct 2014 (Local Time) from LFVP Reporting Station
Moderate Rain Moderate Rain  
Wind Chill: 12°   Ceiling: 300
Heat Index: 12°   Visibility: 1.5mi
Dew Point: 11°   Wind: 22mph
Humidity: 94%   Direction: 80°E
Pressure: 29.62"   Gusts: NA
Location:  47.65°N, 54.93°W
Report Text: LFVP 241900Z 08019KT 2500 RA BR OVC003 12/11 Q1003 NOSIG
Loading
Personal Weather Stations






























Interactive Weather Map
Tropical Storm Tracking
New forecast layout! Learn more

10-Day Weather Forecast

Advertisements
Track Severe Weather on mobile